sensor_id;sensor_type;location;lat;lon;timestamp;pressure;altitude;pressure_sealevel;temperature;humidity
63552;BME280;49698;48.072;7.800;2023-07-24T00:01:26;98616.53;;;19.06;76.25
63552;BME280;49698;48.072;7.800;2023-07-24T00:03:54;98603.28;;;19.05;76.17
63552;BME280;49698;48.072;7.800;2023-07-24T00:06:23;98595.44;;;19.03;76.44
63552;BME280;49698;48.072;7.800;2023-07-24T00:08:51;98608.72;;;19.05;76.52
63552;BME280;49698;48.072;7.800;2023-07-24T00:11:19;98611.78;;;19.03;76.68
63552;BME280;49698;48.072;7.800;2023-07-24T00:13:48;98605.09;;;19.01;76.75
63552;BME280;49698;48.072;7.800;2023-07-24T00:16:16;98610.16;;;18.99;76.82
63552;BME280;49698;48.072;7.800;2023-07-24T00:18:44;98604.25;;;18.97;77.23
63552;BME280;49698;48.072;7.800;2023-07-24T00:21:12;98620.19;;;18.95;77.49
63552;BME280;49698;48.072;7.800;2023-07-24T00:23:41;98619.66;;;18.89;77.63
63552;BME280;49698;48.072;7.800;2023-07-24T00:26:09;98611.84;;;18.88;77.98
63552;BME280;49698;48.072;7.800;2023-07-24T00:28:37;98604.41;;;18.85;78.29
63552;BME280;49698;48.072;7.800;2023-07-24T00:31:06;98610.53;;;18.81;78.74
63552;BME280;49698;48.072;7.800;2023-07-24T00:33:35;98607.31;;;18.76;79.05
63552;BME280;49698;48.072;7.800;2023-07-24T00:36:04;98610.34;;;18.71;79.25
63552;BME280;49698;48.072;7.800;2023-07-24T00:38:32;98601.63;;;18.65;79.73
63552;BME280;49698;48.072;7.800;2023-07-24T00:41:00;98605.41;;;18.61;80.01
63552;BME280;49698;48.072;7.800;2023-07-24T00:43:28;98602.97;;;18.55;80.31
63552;BME280;49698;48.072;7.800;2023-07-24T00:45:56;98601.31;;;18.51;80.53
63552;BME280;49698;48.072;7.800;2023-07-24T00:48:26;98607.03;;;18.46;80.44
63552;BME280;49698;48.072;7.800;2023-07-24T00:50:56;98602.66;;;18.41;80.36
63552;BME280;49698;48.072;7.800;2023-07-24T00:53:24;98609.56;;;18.39;81.01
63552;BME280;49698;48.072;7.800;2023-07-24T00:55:52;98605.56;;;18.32;81.01
63552;BME280;49698;48.072;7.800;2023-07-24T00:58:21;98594.59;;;18.29;81.10
63552;BME280;49698;48.072;7.800;2023-07-24T01:00:49;98591.34;;;18.23;81.14
63552;BME280;49698;48.072;7.800;2023-07-24T01:03:18;98581.19;;;18.20;81.39
63552;BME280;49698;48.072;7.800;2023-07-24T01:05:47;98570.63;;;18.19;81.43
63552;BME280;49698;48.072;7.800;2023-07-24T01:08:15;98569.50;;;18.20;81.48
63552;BME280;49698;48.072;7.800;2023-07-24T01:10:44;98562.47;;;18.19;81.41
63552;BME280;49698;48.072;7.800;2023-07-24T01:13:18;98560.91;;;18.18;81.59
63552;BME280;49698;48.072;7.800;2023-07-24T01:15:55;98556.16;;;18.15;81.80
63552;BME280;49698;48.072;7.800;2023-07-24T01:18:24;98549.53;;;18.12;82.26
63552;BME280;49698;48.072;7.800;2023-07-24T01:20:56;98549.06;;;18.10;82.31
63552;BME280;49698;48.072;7.800;2023-07-24T01:23:36;98545.91;;;18.08;82.60
63552;BME280;49698;48.072;7.800;2023-07-24T01:26:06;98549.78;;;18.07;82.83
63552;BME280;49698;48.072;7.800;2023-07-24T01:28:35;98539.59;;;18.04;83.05
63552;BME280;49698;48.072;7.800;2023-07-24T01:31:04;98537.63;;;18.01;83.13
63552;BME280;49698;48.072;7.800;2023-07-24T01:33:32;98535.59;;;17.98;83.44
63552;BME280;49698;48.072;7.800;2023-07-24T01:36:03;98529.69;;;17.96;83.48
63552;BME280;49698;48.072;7.800;2023-07-24T01:38:34;98526.56;;;17.94;83.82
63552;BME280;49698;48.072;7.800;2023-07-24T01:41:03;98539.28;;;17.90;84.02
63552;BME280;49698;48.072;7.800;2023-07-24T01:43:32;98529.91;;;17.87;84.36
63552;BME280;49698;48.072;7.800;2023-07-24T01:46:00;98526.38;;;17.87;84.26
63552;BME280;49698;48.072;7.800;2023-07-24T01:48:28;98527.53;;;17.86;84.58
63552;BME280;49698;48.072;7.800;2023-07-24T01:50:56;98535.69;;;17.86;84.39
63552;BME280;49698;48.072;7.800;2023-07-24T01:53:24;98535.69;;;17.86;84.60
63552;BME280;49698;48.072;7.800;2023-07-24T01:55:52;98544.63;;;17.86;84.71
63552;BME280;49698;48.072;7.800;2023-07-24T01:58:21;98537.97;;;17.83;84.84
63552;BME280;49698;48.072;7.800;2023-07-24T02:00:50;98536.72;;;17.81;84.72
63552;BME280;49698;48.072;7.800;2023-07-24T02:03:18;98535.06;;;17.76;84.85
63552;BME280;49698;48.072;7.800;2023-07-24T02:05:49;98533.00;;;17.73;84.97
63552;BME280;49698;48.072;7.800;2023-07-24T02:08:18;98536.47;;;17.70;84.97
63552;BME280;49698;48.072;7.800;2023-07-24T02:10:48;98530.25;;;17.70;85.31
63552;BME280;49698;48.072;7.800;2023-07-24T02:13:17;98522.41;;;17.68;85.42
63552;BME280;49698;48.072;7.800;2023-07-24T02:15:49;98519.69;;;17.68;85.54
63552;BME280;49698;48.072;7.800;2023-07-24T02:18:18;98503.41;;;17.68;85.46
63552;BME280;49698;48.072;7.800;2023-07-24T02:20:50;98506.91;;;17.69;85.64
63552;BME280;49698;48.072;7.800;2023-07-24T02:23:18;98497.97;;;17.68;85.64
63552;BME280;49698;48.072;7.800;2023-07-24T02:25:50;98505.31;;;17.68;85.67
63552;BME280;49698;48.072;7.800;2023-07-24T02:28:18;98499.09;;;17.67;85.63
63552;BME280;49698;48.072;7.800;2023-07-24T02:30:47;98499.09;;;17.67;85.70
63552;BME280;49698;48.072;7.800;2023-07-24T02:33:15;98498.31;;;17.67;85.36
63552;BME280;49698;48.072;7.800;2023-07-24T02:35:44;98500.69;;;17.68;85.55
63552;BME280;49698;48.072;7.800;2023-07-24T02:38:13;98499.53;;;17.69;85.27
63552;BME280;49698;48.072;7.800;2023-07-24T02:40:41;98497.25;;;17.71;85.34
63552;BME280;49698;48.072;7.800;2023-07-24T02:43:09;98496.91;;;17.73;85.24
63552;BME280;49698;48.072;7.800;2023-07-24T02:45:38;98504.25;;;17.72;85.25
63552;BME280;49698;48.072;7.800;2023-07-24T02:48:06;98498.81;;;17.72;85.36
63552;BME280;49698;48.072;7.800;2023-07-24T02:50:34;98494.53;;;17.71;85.25
63552;BME280;49698;48.072;7.800;2023-07-24T02:53:03;98484.47;;;17.72;85.21
63552;BME280;49698;48.072;7.800;2023-07-24T02:55:32;98486.38;;;17.71;85.06
63552;BME280;49698;48.072;7.800;2023-07-24T02:58:00;98495.31;;;17.72;85.22
63552;BME280;49698;48.072;7.800;2023-07-24T03:00:28;98492.97;;;17.70;85.15
63552;BME280;49698;48.072;7.800;2023-07-24T03:02:56;98497.25;;;17.71;85.13
63552;BME280;49698;48.072;7.800;2023-07-24T03:05:24;98490.25;;;17.70;84.99
63552;BME280;49698;48.072;7.800;2023-07-24T03:07:52;98506.97;;;17.72;85.16
63552;BME280;49698;48.072;7.800;2023-07-24T03:10:22;98509.28;;;17.70;85.23
63552;BME280;49698;48.072;7.800;2023-07-24T03:12:51;98508.13;;;17.71;85.09
63552;BME280;49698;48.072;7.800;2023-07-24T03:15:19;98508.13;;;17.71;85.14
63552;BME280;49698;48.072;7.800;2023-07-24T03:17:48;98506.19;;;17.72;85.33
63552;BME280;49698;48.072;7.800;2023-07-24T03:20:19;98503.13;;;17.73;85.38
63552;BME280;49698;48.072;7.800;2023-07-24T03:22:47;98507.44;;;17.74;85.50
63552;BME280;49698;48.072;7.800;2023-07-24T03:25:15;98513.31;;;17.76;85.71
63552;BME280;49698;48.072;7.800;2023-07-24T03:27:45;98508.66;;;17.77;85.53
63552;BME280;49698;48.072;7.800;2023-07-24T03:30:13;98509.47;;;17.77;86.01
63552;BME280;49698;48.072;7.800;2023-07-24T03:32:41;98510.59;;;17.76;86.01
63552;BME280;49698;48.072;7.800;2023-07-24T03:35:09;98524.19;;;17.76;85.92
63552;BME280;49698;48.072;7.800;2023-07-24T03:37:37;98516.41;;;17.75;86.04
63552;BME280;49698;48.072;7.800;2023-07-24T03:40:07;98505.41;;;17.71;86.06
63552;BME280;49698;48.072;7.800;2023-07-24T03:42:35;98499.53;;;17.69;85.84
63552;BME280;49698;48.072;7.800;2023-07-24T03:45:06;98498.31;;;17.67;86.09
63552;BME280;49698;48.072;7.800;2023-07-24T03:47:35;98485.06;;;17.65;85.77
63552;BME280;49698;48.072;7.800;2023-07-24T03:50:04;98477.28;;;17.64;85.75
63552;BME280;49698;48.072;7.800;2023-07-24T03:52:32;98481.47;;;17.61;85.78
63552;BME280;49698;48.072;7.800;2023-07-24T03:55:01;98483.31;;;17.57;85.71
63552;BME280;49698;48.072;7.800;2023-07-24T03:57:29;98479.31;;;17.51;85.98
63552;BME280;49698;48.072;7.800;2023-07-24T03:59:57;98486.59;;;17.47;86.21
63552;BME280;49698;48.072;7.800;2023-07-24T04:02:27;98486.13;;;17.45;86.58
63552;BME280;49698;48.072;7.800;2023-07-24T04:04:55;98497.78;;;17.45;86.66
63552;BME280;49698;48.072;7.800;2023-07-24T04:07:23;98510.59;;;17.45;86.52
63552;BME280;49698;48.072;7.800;2023-07-24T04:09:51;98515.31;;;17.48;86.49
63552;BME280;49698;48.072;7.800;2023-07-24T04:12:19;98530.47;;;17.49;86.44
63552;BME280;49698;48.072;7.800;2023-07-24T04:14:48;98535.22;;;17.52;86.05
63552;BME280;49698;48.072;7.800;2023-07-24T04:17:17;98541.53;;;17.56;85.80
63552;BME280;49698;48.072;7.800;2023-07-24T04:19:46;98544.34;;;17.59;85.60
63552;BME280;49698;48.072;7.800;2023-07-24T04:22:14;98546.38;;;17.63;85.60
63552;BME280;49698;48.072;7.800;2023-07-24T04:24:42;98558.09;;;17.67;85.29
63552;BME280;49698;48.072;7.800;2023-07-24T04:27:11;98553.09;;;17.69;85.11
63552;BME280;49698;48.072;7.800;2023-07-24T04:29:39;98553.56;;;17.71;85.06
63552;BME280;49698;48.072;7.800;2023-07-24T04:32:07;98567.56;;;17.73;84.88
63552;BME280;49698;48.072;7.800;2023-07-24T04:34:35;98565.31;;;17.75;84.59
63552;BME280;49698;48.072;7.800;2023-07-24T04:37:05;98555.69;;;17.77;84.37
63552;BME280;49698;48.072;7.800;2023-07-24T04:39:34;98552.25;;;17.80;84.23
63552;BME280;49698;48.072;7.800;2023-07-24T04:42:02;98551.91;;;17.82;84.04
63552;BME280;49698;48.072;7.800;2023-07-24T04:44:30;98578.75;;;17.83;84.29
63552;BME280;49698;48.072;7.800;2023-07-24T04:46:59;98580.66;;;17.83;84.11
63552;BME280;49698;48.072;7.800;2023-07-24T04:49:28;98593.91;;;17.84;83.99
63552;BME280;49698;48.072;7.800;2023-07-24T04:51:57;98597.44;;;17.85;83.52
63552;BME280;49698;48.072;7.800;2023-07-24T04:54:26;98594.78;;;17.89;83.30
63552;BME280;49698;48.072;7.800;2023-07-24T04:56:55;98591.38;;;17.92;83.12
63552;BME280;49698;48.072;7.800;2023-07-24T04:59:23;98596.88;;;17.95;83.02
63552;BME280;49698;48.072;7.800;2023-07-24T05:01:51;98591.13;;;17.97;82.87
63552;BME280;49698;48.072;7.800;2023-07-24T05:04:19;98597.34;;;17.97;82.86
63552;BME280;49698;48.072;7.800;2023-07-24T05:06:48;98602.41;;;17.99;83.28
63552;BME280;49698;48.072;7.800;2023-07-24T05:09:17;98591.19;;;18.00;83.40
63552;BME280;49698;48.072;7.800;2023-07-24T05:11:46;98590.84;;;18.02;83.76
63552;BME280;49698;48.072;7.800;2023-07-24T05:14:14;98581.53;;;18.03;83.95
63552;BME280;49698;48.072;7.800;2023-07-24T05:16:42;98568.41;;;18.05;84.29
63552;BME280;49698;48.072;7.800;2023-07-24T05:19:10;98570.75;;;18.06;84.50
63552;BME280;49698;48.072;7.800;2023-07-24T05:21:38;98570.06;;;18.09;84.70
63552;BME280;49698;48.072;7.800;2023-07-24T05:24:06;98557.69;;;18.12;84.90
63552;BME280;49698;48.072;7.800;2023-07-24T05:26:35;98560.13;;;18.17;84.94
63552;BME280;49698;48.072;7.800;2023-07-24T05:29:04;98546.25;;;18.22;85.15
63552;BME280;49698;48.072;7.800;2023-07-24T05:31:34;98544.47;;;18.30;85.24
63552;BME280;49698;48.072;7.800;2023-07-24T05:34:02;98520.22;;;18.41;85.12
63552;BME280;49698;48.072;7.800;2023-07-24T05:36:32;98519.69;;;18.51;85.19
63552;BME280;49698;48.072;7.800;2023-07-24T05:39:00;98536.88;;;18.55;85.03
63552;BME280;49698;48.072;7.800;2023-07-24T05:41:28;98534.16;;;18.55;84.61
63552;BME280;49698;48.072;7.800;2023-07-24T05:43:56;98538.00;;;18.54;84.70
63552;BME280;49698;48.072;7.800;2023-07-24T05:46:25;98536.44;;;18.53;84.78
63552;BME280;49698;48.072;7.800;2023-07-24T05:48:53;98543.81;;;18.52;84.92
63552;BME280;49698;48.072;7.800;2023-07-24T05:51:23;98545.75;;;18.52;84.66
63552;BME280;49698;48.072;7.800;2023-07-24T05:53:51;98548.47;;;18.52;84.92
63552;BME280;49698;48.072;7.800;2023-07-24T05:56:19;98560.56;;;18.54;84.91
63552;BME280;49698;48.072;7.800;2023-07-24T05:58:47;98576.53;;;18.56;85.10
63552;BME280;49698;48.072;7.800;2023-07-24T06:01:16;98568.78;;;18.58;85.14
63552;BME280;49698;48.072;7.800;2023-07-24T06:03:45;98561.44;;;18.58;85.12
63552;BME280;49698;48.072;7.800;2023-07-24T06:06:13;98558.78;;;18.62;85.13
63552;BME280;49698;48.072;7.800;2023-07-24T06:08:42;98556.50;;;18.64;85.36
63552;BME280;49698;48.072;7.800;2023-07-24T06:11:10;98555.78;;;18.67;85.43
63552;BME280;49698;48.072;7.800;2023-07-24T06:13:38;98557.47;;;18.72;85.37
63552;BME280;49698;48.072;7.800;2023-07-24T06:16:06;98553.66;;;18.76;85.34
63552;BME280;49698;48.072;7.800;2023-07-24T06:18:35;98552.25;;;18.83;85.31
63552;BME280;49698;48.072;7.800;2023-07-24T06:21:04;98565.63;;;18.91;84.99
63552;BME280;49698;48.072;7.800;2023-07-24T06:23:32;98568.13;;;19.00;84.84
63552;BME280;49698;48.072;7.800;2023-07-24T06:26:00;98557.38;;;19.07;85.05
63552;BME280;49698;48.072;7.800;2023-07-24T06:28:29;98560.66;;;19.16;85.02
63552;BME280;49698;48.072;7.800;2023-07-24T06:30:58;98577.22;;;19.27;84.88
63552;BME280;49698;48.072;7.800;2023-07-24T06:33:27;98590.69;;;19.39;84.19
63552;BME280;49698;48.072;7.800;2023-07-24T06:35:55;98588.66;;;19.55;83.01
63552;BME280;49698;48.072;7.800;2023-07-24T06:38:25;98590.56;;;19.74;81.20
63552;BME280;49698;48.072;7.800;2023-07-24T06:40:54;98608.47;;;19.95;78.80
63552;BME280;49698;48.072;7.800;2023-07-24T06:43:22;98597.47;;;20.14;76.25
63552;BME280;49698;48.072;7.800;2023-07-24T06:45:50;98620.34;;;20.33;75.04
63552;BME280;49698;48.072;7.800;2023-07-24T06:48:18;98634.59;;;20.45;73.64
63552;BME280;49698;48.072;7.800;2023-07-24T06:50:46;98646.84;;;20.55;73.29
63552;BME280;49698;48.072;7.800;2023-07-24T06:53:14;98619.19;;;20.57;74.03
63552;BME280;49698;48.072;7.800;2023-07-24T06:55:44;98594.84;;;20.48;75.01
63552;BME280;49698;48.072;7.800;2023-07-24T06:58:12;98591.19;;;20.37;76.22
63552;BME280;49698;48.072;7.800;2023-07-24T07:00:40;98620.97;;;20.22;77.71
63552;BME280;49698;48.072;7.800;2023-07-24T07:03:08;98597.75;;;20.09;78.68
63552;BME280;49698;48.072;7.800;2023-07-24T07:05:37;98594.09;;;19.98;79.75
63552;BME280;49698;48.072;7.800;2023-07-24T07:08:05;98598.59;;;19.87;81.81
63552;BME280;49698;48.072;7.800;2023-07-24T07:10:33;98598.41;;;19.76;82.83
63552;BME280;49698;48.072;7.800;2023-07-24T07:13:05;98602.56;;;19.70;83.40
63552;BME280;49698;48.072;7.800;2023-07-24T07:15:33;98601.38;;;19.67;84.04
63552;BME280;49698;48.072;7.800;2023-07-24T07:18:01;98610.34;;;19.68;84.28
63552;BME280;49698;48.072;7.800;2023-07-24T07:20:29;98617.78;;;19.71;84.68
63552;BME280;49698;48.072;7.800;2023-07-24T07:22:57;98613.13;;;19.71;86.01
63552;BME280;49698;48.072;7.800;2023-07-24T07:25:25;98616.13;;;19.66;86.87
63552;BME280;49698;48.072;7.800;2023-07-24T07:27:53;98602.78;;;19.61;87.49
63552;BME280;49698;48.072;7.800;2023-07-24T07:30:23;98621.00;;;19.57;87.88
63552;BME280;49698;48.072;7.800;2023-07-24T07:32:51;98599.50;;;19.52;88.57
63552;BME280;49698;48.072;7.800;2023-07-24T07:35:19;98597.50;;;19.49;89.07
63552;BME280;49698;48.072;7.800;2023-07-24T07:37:47;98612.28;;;19.48;89.96
63552;BME280;49698;48.072;7.800;2023-07-24T07:40:16;98609.13;;;19.46;90.93
63552;BME280;49698;48.072;7.800;2023-07-24T07:42:44;98610.19;;;19.41;91.62
63552;BME280;49698;48.072;7.800;2023-07-24T07:45:19;98586.75;;;19.37;92.34
63552;BME280;49698;48.072;7.800;2023-07-24T07:48:16;98575.78;;;19.33;93.22
63552;BME280;49698;48.072;7.800;2023-07-24T07:50:50;98559.78;;;19.31;93.91
63552;BME280;49698;48.072;7.800;2023-07-24T07:53:18;98585.91;;;19.33;94.42
63552;BME280;49698;48.072;7.800;2023-07-24T07:55:55;98592.16;;;19.33;94.71
63552;BME280;49698;48.072;7.800;2023-07-24T07:58:23;98559.84;;;19.35;94.12
63552;BME280;49698;48.072;7.800;2023-07-24T08:00:51;98557.19;;;19.39;93.24
63552;BME280;49698;48.072;7.800;2023-07-24T08:03:21;98562.72;;;19.42;92.68
63552;BME280;49698;48.072;7.800;2023-07-24T08:05:50;98556.91;;;19.44;91.65
63552;BME280;49698;48.072;7.800;2023-07-24T08:08:18;98549.16;;;19.46;90.60
63552;BME280;49698;48.072;7.800;2023-07-24T08:10:46;98529.34;;;19.49;90.23
63552;BME280;49698;48.072;7.800;2023-07-24T08:13:15;98519.31;;;19.53;89.46
63552;BME280;49698;48.072;7.800;2023-07-24T08:15:43;98505.34;;;19.58;89.25
63552;BME280;49698;48.072;7.800;2023-07-24T08:18:11;98494.59;;;19.65;88.82
63552;BME280;49698;48.072;7.800;2023-07-24T08:20:41;98503.31;;;19.74;89.27
63552;BME280;49698;48.072;7.800;2023-07-24T08:23:09;98487.50;;;19.84;89.25
63552;BME280;49698;48.072;7.800;2023-07-24T08:25:37;98481.41;;;19.94;89.60
63552;BME280;49698;48.072;7.800;2023-07-24T08:28:07;98485.44;;;20.03;90.58
63552;BME280;49698;48.072;7.800;2023-07-24T08:30:36;98487.91;;;20.12;90.33
63552;BME280;49698;48.072;7.800;2023-07-24T08:33:04;98469.34;;;20.21;90.37
63552;BME280;49698;48.072;7.800;2023-07-24T08:35:32;98464.34;;;20.27;90.19
63552;BME280;49698;48.072;7.800;2023-07-24T08:38:01;98462.81;;;20.30;89.98
63552;BME280;49698;48.072;7.800;2023-07-24T08:40:29;98477.25;;;20.30;89.56
63552;BME280;49698;48.072;7.800;2023-07-24T08:42:57;98490.09;;;20.30;89.99
63552;BME280;49698;48.072;7.800;2023-07-24T08:45:26;98505.22;;;20.23;90.72
63552;BME280;49698;48.072;7.800;2023-07-24T08:47:55;98519.53;;;20.17;90.98
63552;BME280;49698;48.072;7.800;2023-07-24T08:50:25;98533.88;;;20.10;91.55
63552;BME280;49698;48.072;7.800;2023-07-24T08:52:54;98553.69;;;20.07;92.04
63552;BME280;49698;48.072;7.800;2023-07-24T08:55:25;98566.06;;;20.01;92.62
63552;BME280;49698;48.072;7.800;2023-07-24T08:57:54;98576.13;;;19.97;92.83
63552;BME280;49698;48.072;7.800;2023-07-24T09:00:22;98546.84;;;19.94;93.40
63552;BME280;49698;48.072;7.800;2023-07-24T09:02:50;98516.00;;;19.90;93.79
63552;BME280;49698;48.072;7.800;2023-07-24T09:05:18;98519.50;;;19.87;94.67
63552;BME280;49698;48.072;7.800;2023-07-24T09:07:47;98549.38;;;19.79;94.96
63552;BME280;49698;48.072;7.800;2023-07-24T09:10:25;98590.94;;;19.73;95.89
63552;BME280;49698;48.072;7.800;2023-07-24T09:12:54;98607.53;;;19.64;96.18
63552;BME280;49698;48.072;7.800;2023-07-24T09:15:22;98603.50;;;19.58;96.78
63552;BME280;49698;48.072;7.800;2023-07-24T09:17:51;98637.28;;;19.53;97.29
63552;BME280;49698;48.072;7.800;2023-07-24T09:20:20;98691.31;;;19.48;97.37
63552;BME280;49698;48.072;7.800;2023-07-24T09:22:52;98707.53;;;19.41;98.01
63552;BME280;49698;48.072;7.800;2023-07-24T09:25:33;98739.63;;;19.31;97.96
63552;BME280;49698;48.072;7.800;2023-07-24T09:28:09;98740.22;;;19.21;97.94
63552;BME280;49698;48.072;7.800;2023-07-24T09:30:38;98726.34;;;19.11;98.58
63552;BME280;49698;48.072;7.800;2023-07-24T09:33:06;98715.66;;;19.02;99.35
63552;BME280;49698;48.072;7.800;2023-07-24T09:35:35;98716.56;;;18.90;99.43
63552;BME280;49698;48.072;7.800;2023-07-24T09:38:18;98680.91;;;18.79;99.97
63552;BME280;49698;48.072;7.800;2023-07-24T09:40:47;98686.97;;;18.73;100.00
63552;BME280;49698;48.072;7.800;2023-07-24T09:43:17;98689.59;;;18.69;100.00
63552;BME280;49698;48.072;7.800;2023-07-24T09:45:56;98695.72;;;18.66;100.00
63552;BME280;49698;48.072;7.800;2023-07-24T09:48:26;98679.41;;;18.66;100.00
63552;BME280;49698;48.072;7.800;2023-07-24T09:50:59;98663.06;;;18.66;100.00
63552;BME280;49698;48.072;7.800;2023-07-24T09:53:33;98639.31;;;18.63;100.00
63552;BME280;49698;48.072;7.800;2023-07-24T09:56:05;98624.91;;;18.63;100.00
63552;BME280;49698;48.072;7.800;2023-07-24T09:58:35;98614.81;;;18.63;100.00
63552;BME280;49698;48.072;7.800;2023-07-24T10:01:04;98638.84;;;18.61;100.00
63552;BME280;49698;48.072;7.800;2023-07-24T10:03:33;98676.09;;;18.57;100.00
63552;BME280;49698;48.072;7.800;2023-07-24T10:06:02;98722.63;;;18.52;100.00
63552;BME280;49698;48.072;7.800;2023-07-24T10:08:31;98715.16;;;18.49;100.00
63552;BME280;49698;48.072;7.800;2023-07-24T10:10:59;98717.78;;;18.45;100.00
63552;BME280;49698;48.072;7.800;2023-07-24T10:13:29;98715.78;;;18.42;100.00
63552;BME280;49698;48.072;7.800;2023-07-24T10:15:57;98702.06;;;18.39;100.00
63552;BME280;49698;48.072;7.800;2023-07-24T10:18:27;98686.47;;;18.36;100.00
63552;BME280;49698;48.072;7.800;2023-07-24T10:21:01;98678.66;;;18.34;100.00
63552;BME280;49698;48.072;7.800;2023-07-24T10:23:29;98641.25;;;18.31;100.00
63552;BME280;49698;48.072;7.800;2023-07-24T10:26:02;98555.63;;;18.25;100.00
63552;BME280;49698;48.072;7.800;2023-07-24T10:28:33;98516.00;;;18.24;100.00
63552;BME280;49698;48.072;7.800;2023-07-24T10:31:07;98453.06;;;18.25;100.00
63552;BME280;49698;48.072;7.800;2023-07-24T10:33:44;98467.16;;;18.31;100.00
63552;BME280;49698;48.072;7.800;2023-07-24T10:36:16;98501.59;;;18.43;100.00
63552;BME280;49698;48.072;7.800;2023-07-24T10:38:46;98509.66;;;18.55;100.00
63552;BME280;49698;48.072;7.800;2023-07-24T10:41:14;98517.78;;;18.71;100.00
63552;BME280;49698;48.072;7.800;2023-07-24T10:43:52;98531.31;;;18.87;100.00
63552;BME280;49698;48.072;7.800;2023-07-24T10:46:35;98538.03;;;19.12;99.64
63552;BME280;49698;48.072;7.800;2023-07-24T10:49:07;98538.50;;;19.37;97.79
63552;BME280;49698;48.072;7.800;2023-07-24T10:51:35;98543.97;;;19.60;96.38
63552;BME280;49698;48.072;7.800;2023-07-24T10:54:04;98557.19;;;19.81;95.58
63552;BME280;49698;48.072;7.800;2023-07-24T10:56:32;98572.31;;;20.01;94.87
63552;BME280;49698;48.072;7.800;2023-07-24T10:59:04;98573.38;;;20.20;93.74
63552;BME280;49698;48.072;7.800;2023-07-24T11:01:32;98577.09;;;20.35;92.79
63552;BME280;49698;48.072;7.800;2023-07-24T11:04:01;98569.16;;;20.49;91.96
63552;BME280;49698;48.072;7.800;2023-07-24T11:06:29;98566.25;;;20.65;91.15
63552;BME280;49698;48.072;7.800;2023-07-24T11:08:59;98559.88;;;20.84;90.51
63552;BME280;49698;48.072;7.800;2023-07-24T11:11:28;98557.81;;;21.07;89.90
63552;BME280;49698;48.072;7.800;2023-07-24T11:13:57;98561.53;;;21.29;89.16
63552;BME280;49698;48.072;7.800;2023-07-24T11:16:27;98564.91;;;21.49;86.30
63552;BME280;49698;48.072;7.800;2023-07-24T11:18:58;98561.94;;;21.65;84.70
63552;BME280;49698;48.072;7.800;2023-07-24T11:21:26;98564.78;;;21.79;83.51
63552;BME280;49698;48.072;7.800;2023-07-24T11:23:55;98566.88;;;21.93;82.14
63552;BME280;49698;48.072;7.800;2023-07-24T11:26:25;98568.09;;;22.03;80.60
63552;BME280;49698;48.072;7.800;2023-07-24T11:28:53;98567.03;;;22.14;79.96
63552;BME280;49698;48.072;7.800;2023-07-24T11:31:22;98564.41;;;22.29;78.17
63552;BME280;49698;48.072;7.800;2023-07-24T11:33:52;98567.28;;;22.46;77.85
63552;BME280;49698;48.072;7.800;2023-07-24T11:36:21;98560.28;;;22.60;75.62
63552;BME280;49698;48.072;7.800;2023-07-24T11:38:49;98572.84;;;22.68;74.28
63552;BME280;49698;48.072;7.800;2023-07-24T11:41:18;98573.66;;;22.72;74.00
63552;BME280;49698;48.072;7.800;2023-07-24T11:43:46;98567.38;;;22.71;73.45
63552;BME280;49698;48.072;7.800;2023-07-24T11:46:24;98578.28;;;22.61;72.45
63552;BME280;49698;48.072;7.800;2023-07-24T11:48:54;98588.38;;;22.42;71.83
63552;BME280;49698;48.072;7.800;2023-07-24T11:51:25;98572.19;;;22.23;71.88
63552;BME280;49698;48.072;7.800;2023-07-24T11:54:05;98575.53;;;22.02;72.67
63552;BME280;49698;48.072;7.800;2023-07-24T11:56:34;98572.31;;;21.89;73.41
63552;BME280;49698;48.072;7.800;2023-07-24T11:59:09;98561.31;;;21.86;74.12
63552;BME280;49698;48.072;7.800;2023-07-24T12:01:37;98557.03;;;21.85;74.02
63552;BME280;49698;48.072;7.800;2023-07-24T12:04:07;98569.97;;;21.88;74.10
63552;BME280;49698;48.072;7.800;2023-07-24T12:06:35;98561.72;;;21.84;73.41
63552;BME280;49698;48.072;7.800;2023-07-24T12:09:05;98551.88;;;21.76;73.30
63552;BME280;49698;48.072;7.800;2023-07-24T12:11:39;98545.91;;;21.67;72.94
63552;BME280;49698;48.072;7.800;2023-07-24T12:14:10;98548.56;;;21.56;73.51
63552;BME280;49698;48.072;7.800;2023-07-24T12:16:38;98553.16;;;21.48;73.65
63552;BME280;49698;48.072;7.800;2023-07-24T12:19:08;98539.81;;;21.40;73.80
63552;BME280;49698;48.072;7.800;2023-07-24T12:21:36;98527.22;;;21.32;73.98
63552;BME280;49698;48.072;7.800;2023-07-24T12:24:05;98527.56;;;21.27;74.08
63552;BME280;49698;48.072;7.800;2023-07-24T12:26:33;98529.47;;;21.22;74.58
63552;BME280;49698;48.072;7.800;2023-07-24T12:29:01;98523.97;;;21.19;74.30
63552;BME280;49698;48.072;7.800;2023-07-24T12:31:29;98525.50;;;21.16;74.75
63552;BME280;49698;48.072;7.800;2023-07-24T12:33:57;98524.00;;;21.22;75.02
63552;BME280;49698;48.072;7.800;2023-07-24T12:36:27;98521.75;;;21.32;75.09
63552;BME280;49698;48.072;7.800;2023-07-24T12:38:55;98520.28;;;21.38;74.20
63552;BME280;49698;48.072;7.800;2023-07-24T12:41:23;98510.16;;;21.42;74.41
63552;BME280;49698;48.072;7.800;2023-07-24T12:43:51;98514.06;;;21.44;73.88
63552;BME280;49698;48.072;7.800;2023-07-24T12:46:19;98527.41;;;21.49;73.41
63552;BME280;49698;48.072;7.800;2023-07-24T12:48:48;98514.88;;;21.48;72.97
63552;BME280;49698;48.072;7.800;2023-07-24T12:51:16;98507.06;;;21.47;72.88
63552;BME280;49698;48.072;7.800;2023-07-24T12:53:46;98497.69;;;21.48;72.89
63552;BME280;49698;48.072;7.800;2023-07-24T12:56:14;98504.00;;;21.52;72.98
63552;BME280;49698;48.072;7.800;2023-07-24T12:58:42;98498.13;;;21.50;72.95
63552;BME280;49698;48.072;7.800;2023-07-24T13:01:11;98498.09;;;21.46;73.24
63552;BME280;49698;48.072;7.800;2023-07-24T13:03:39;98506.25;;;21.43;73.58
63552;BME280;49698;48.072;7.800;2023-07-24T13:06:07;98494.09;;;21.37;73.62
63552;BME280;49698;48.072;7.800;2023-07-24T13:08:35;98487.44;;;21.34;73.94
63552;BME280;49698;48.072;7.800;2023-07-24T13:11:04;98486.66;;;21.34;74.02